CW2798 Aduanas ES current weather conditions

sailwx.info

Air temperature 19.4° C
Dewpoint 16.7° C

Last reported at 2015-May-29 23:47 UTC.
Time now 2015-May-30 00:32 UTC

Location: N 38°48' E 000°11'.
View on Google Maps.

See reports from other nearby stations

  
Tides and Currents Weather Stations Pressure Air Temp Water Temp Dewpoint Dewpoint Depression Visibility Wind Speed Wind Dir Waves Ship Positions
date/time (UTC)wind fromknots sea level pressurealtimeterstation pressurevisibilityair tempwater tempwave heightnotes
2015-May-29 23:47 19.4
2015-May-29 23:32 158 19.4
2015-May-29 23:17 19.4
2015-May-29 23:02 327 0 gusting 4 19.4
2015-May-29 22:47 19.4
2015-May-29 22:32 19.4
2015-May-29 22:17 19.4
2015-May-29 22:02 19.4
2015-May-29 21:47 20.0
2015-May-29 21:17 316 2 gusting 4 20.0
2015-May-29 21:02 297 1 gusting 2 19.4
2015-May-29 20:47 283 0 gusting 1 18.9
2015-May-29 20:32 19.4
2015-May-29 20:02 246 19.4
2015-May-29 19:32 20.0
2015-May-29 19:17 20.0
2015-May-29 19:02 173 20.0
2015-May-29 18:47 229 2 gusting 5 20.6
2015-May-29 18:17 157 2 gusting 5 20.6
2015-May-29 17:47 139 2 gusting 6 21.1
2015-May-29 17:32 126 1 gusting 6 21.1
2015-May-29 17:17 128 1 gusting 5 21.1
2015-May-29 17:02 126 2 gusting 6 21.1
2015-May-29 16:32 128 2 gusting 6 21.1
2015-May-29 15:47 137 0 gusting 6 21.1
2015-May-29 15:32 154 2 gusting 5 21.1
2015-May-29 14:17 096 2 gusting 4 21.7
2015-May-29 13:47 109 3 gusting 6 21.7
2015-May-29 12:32 135 1 gusting 6 21.7
2015-May-29 11:47 133 3 gusting 6 20.6
2015-May-29 11:32 130 2 gusting 6 20.6
2015-May-29 11:02 092 2 gusting 5 20.6
2015-May-29 10:47 097 1 gusting 3 20.6
2015-May-29 10:32 139 1 gusting 3 20.6
2015-May-29 10:02 138 1 gusting 5 20.6
2015-May-29 09:47 093 21.1
2015-May-29 09:32 20.6
2015-May-29 09:17 096 3 gusting 5 20.0
2015-May-29 09:02 086 2 gusting 5 20.0
2015-May-29 08:47 088 2 gusting 4 20.0
2015-May-29 08:17 093 20.6
2015-May-29 07:32 19.4
2015-May-29 07:17 20.6
2015-May-29 07:02 19.4
2015-May-29 06:17 17.2
2015-May-29 06:02 248 16.7
2015-May-29 05:47 17.2
2015-May-29 05:02 356 1 gusting 5 18.3
2015-May-29 04:32 16.7
2015-May-29 04:17 16.7
2015-May-29 04:02 16.7
2015-May-29 03:47 16.7
2015-May-29 03:17 16.7
2015-May-29 03:02 16.7
2015-May-29 02:17 16.7
2015-May-29 02:02 16.7
2015-May-29 01:32 17.8
2015-May-29 01:17 260 0 gusting 2 17.8
2015-May-29 00:02 259 3 gusting 6 18.9
2015-May-28 23:32 258 2 gusting 4 18.9
2015-May-28 23:02 269 1 gusting 3 18.9
2015-May-28 22:47 266 2 gusting 4 18.9
2015-May-28 22:02 250 4 gusting 6 19.4
2015-May-28 21:32 250 4 gusting 6 19.4
2015-May-28 21:02 230 4 gusting 6 19.4
2015-May-28 20:47 239 5 gusting 7 20.0
2015-May-28 19:32 224 6 gusting 12 20.0
2015-May-28 19:17 218 6 gusting 10 20.0
2015-May-28 19:02 215 6 gusting 8 20.6
2015-May-28 18:47 207 4 gusting 6 20.6
2015-May-28 18:32 194 6 gusting 10 20.6
2015-May-28 18:02 203 6 gusting 11 21.1
2015-May-28 17:47 197 6 gusting 11 21.1
2015-May-28 17:32 169 6 gusting 13 21.1
2015-May-28 17:30 189 6 gusting 11 21.7
2015-May-28 17:15 182 7 gusting 11 21.7
2015-May-28 17:02 182 6 gusting 13 21.7
2015-May-28 16:32 173 6 gusting 13 21.7
2015-May-28 16:17 170 6 gusting 12 21.7
2015-May-28 16:02 172 7 gusting 11 21.7
2015-May-28 15:47 187 6 gusting 10 22.2
2015-May-28 15:32 170 7 gusting 13 22.2
2015-May-28 15:17 167 8 gusting 14 22.2
2015-May-28 15:02 170 8 gusting 13 21.7
2015-May-28 14:47 169 8 gusting 13 22.2
2015-May-28 14:32 176 8 gusting 13 22.2
2015-May-28 14:17 165 8 gusting 13 22.2
2015-May-28 13:32 157 8 gusting 13 22.2
2015-May-28 12:47 205 5 gusting 13 23.3
2015-May-28 12:32 167 8 gusting 13 22.2
2015-May-28 12:17 165 7 gusting 13 22.8
2015-May-28 12:02 167 7 gusting 13 22.2
2015-May-28 11:47 198 6 gusting 9 22.2
2015-May-28 11:32 186 6 gusting 11 22.2
2015-May-28 11:17 170 6 gusting 11 21.7
2015-May-28 11:02 147 5 gusting 10 21.1
2015-May-28 10:47 151 5 gusting 8 21.1
2015-May-28 10:32 154 6 gusting 9 21.1
2015-May-28 09:47 148 4 gusting 10 21.1
2015-May-28 09:17 158 5 gusting 8 20.6
2015-May-28 08:02 153 0 gusting 3 20.6
2015-May-28 07:47 137 0 gusting 5 20.6
2015-May-28 07:32 132 20.6
2015-May-28 07:17 20.6
2015-May-28 07:02 20.6
2015-May-28 06:47 20.0
2015-May-28 06:32 19.4
2015-May-28 06:17 18.9
2015-May-28 05:32 16.7
2015-May-28 04:47 16.7
2015-May-28 04:32 16.7
2015-May-28 03:47 17.2
2015-May-28 03:32 17.2
2015-May-28 03:17 17.2
2015-May-28 02:47 17.8
2015-May-28 02:17 17.8
2015-May-28 01:47 18.3
2015-May-28 01:17 18.9
2015-May-28 00:47 249 1 gusting 2 18.9
2015-May-28 00:17 250 18.9
2015-May-28 00:02 255 1 gusting 4 18.9